Time;durP1;ratioP1;P1;durP2;ratioP2;P2;SDS_P1;SDS_P2;PMS_P1;PMS_P2;Temp;Humidity;BMP_temperature;BMP_pressure;BME280_temperature;BME280_humidity;BME280_pressure;Samples;Min_cycle;Max_cycle;Signal;HPM_P1;HPM_P2
2022/06/24 00:01:39;;;;;;;;;;;;;;;;;;5018398;28;19975;-26
2022/06/24 00:04:05;;;;;;;;;;;;;;;;;;5017945;28;20281;-25
2022/06/24 00:06:31;;;;;;;;;;;;;;;;;;5018036;28;19917;-25
2022/06/24 00:08:57;;;;;;;;;;;;;;;;;;5018269;28;19920;-25
2022/06/24 00:11:23;;;;;;;;;;;;;;;;;;5018488;28;19975;-25
2022/06/24 00:13:50;;;;;;;;;;;;;;;;;;5017872;28;20374;-25
2022/06/24 00:16:15;;;;;;;;;;;;;;;;;;5016944;28;20368;-25
2022/06/24 00:18:41;;;;;;;;;;;;;;;;;;5017881;28;19939;-26
2022/06/24 00:21:07;;;;;;;;;;;;;;;;;;5017800;28;20396;-25
2022/06/24 00:23:34;;;;;;;;;;;;;;;;;;5017671;28;19914;-25
2022/06/24 00:26:00;;;;;;;;;;;;;;;;;;5017965;28;19917;-25
2022/06/24 00:28:26;;;;;;;;;;;;;;;;;;5017637;28;19925;-25
2022/06/24 00:30:51;;;;;;;;;;;;;;;;;;5017538;28;19980;-25
2022/06/24 00:33:18;;;;;;;;;;;;;;;;;;5017518;28;19920;-26
2022/06/24 00:35:44;;;;;;;;;;;;;;;;;;5017776;28;20238;-25
2022/06/24 00:38:10;;;;;;;;;;;;;;;;;;5017507;28;19936;-25
2022/06/24 00:40:36;;;;;;;;;;;;;;;;;;5017447;28;19917;-25
2022/06/24 00:43:02;;;;;;;;;;;;;;;;;;5017916;28;20355;-25
2022/06/24 00:45:28;;;;;;;;;;;;;;;;;;5017417;28;19914;-25
2022/06/24 00:47:54;;;;;;;;;;;;;;;;;;5017314;28;19971;-25
2022/06/24 00:50:20;;;;;;;;;;;;;;;;;;5017244;28;20011;-26
2022/06/24 00:52:46;;;;;;;;;;;;;;;;;;5017139;28;19913;-25
2022/06/24 00:55:12;;;;;;;;;;;;;;;;;;5017215;28;19919;-26
2022/06/24 00:57:38;;;;;;;;;;;;;;;;;;5017360;28;19913;-26
2022/06/24 01:00:04;;;;;;;;;;;;;;;;;;5017652;28;19916;-26
2022/06/24 01:02:30;;;;;;;;;;;;;;;;;;5016802;28;19948;-26
2022/06/24 01:04:56;;;;;;;;;;;;;;;;;;5016783;28;19924;-26
2022/06/24 01:07:22;;;;;;;;;;;;;;;;;;5016536;28;19910;-26
2022/06/24 01:09:48;;;;;;;;;;;;;;;;;;5016928;28;19962;-26
2022/06/24 01:12:14;;;;;;;;;;;;;;;;;;5017133;28;19928;-26
2022/06/24 01:14:41;;;;;;;;;;;;;;;;;;5016815;28;19924;-26
2022/06/24 01:17:07;;;;;;;;;;;;;;;;;;5016694;28;19918;-26
2022/06/24 01:19:33;;;;;;;;;;;;;;;;;;5017017;28;19917;-26
2022/06/24 01:21:59;;;;;;;;;;;;;;;;;;5016562;28;19917;-26
2022/06/24 01:24:25;;;;;;;;;;;;;;;;;;5016568;28;19913;-26
2022/06/24 01:26:51;;;;;;;;;;;;;;;;;;5016853;28;20279;-26
2022/06/24 01:29:17;;;;;;;;;;;;;;;;;;5015599;28;19913;-26
2022/06/24 01:31:45;;;;;;;;;;;;;;;;;;5016345;28;19922;-26
2022/06/24 01:34:11;;;;;;;;;;;;;;;;;;5016711;28;19997;-26
2022/06/24 01:36:38;;;;;;;;;;;;;;;;;;5016322;28;20001;-26
2022/06/24 01:39:04;;;;;;;;;;;;;;;;;;5016644;28;20252;-26
2022/06/24 01:41:30;;;;;;;;;;;;;;;;;;5016231;28;19916;-26
2022/06/24 01:43:57;;;;;;;;;;;;;;;;;;5016244;28;20012;-26
2022/06/24 01:46:23;;;;;;;;;;;;;;;;;;5016313;28;19991;-26
2022/06/24 01:48:49;;;;;;;;;;;;;;;;;;5016459;28;20016;-26
2022/06/24 01:51:15;;;;;;;;;;;;;;;;;;5016359;28;20017;-26
2022/06/24 01:53:41;;;;;;;;;;;;;;;;;;5016002;28;19937;-26
2022/06/24 01:56:08;;;;;;;;;;;;;;;;;;5016644;28;19916;-26
2022/06/24 01:58:33;;;;;;;;;;;;;;;;;;5015093;28;20268;-26
2022/06/24 02:00:59;;;;;;;;;;;;;;;;;;5016530;28;19963;-26
2022/06/24 02:03:26;;;;;;;;;;;;;;;;;;5015687;28;19948;-25
2022/06/24 02:05:51;;;;;;;;;;;;;;;;;;5015881;28;19918;-25
2022/06/24 02:08:18;;;;;;;;;;;;;;;;;;5015837;28;20297;-25
2022/06/24 02:13:28;;;;;;;;;;;;;;;;;;5015813;28;20371;-25
2022/06/24 02:15:54;;;;;;;;;;;;;;;;;;5015967;28;19913;-25
2022/06/24 02:18:20;;;;;;;;;;;;;;;;;;5015384;28;19909;-25
2022/06/24 02:20:46;;;;;;;;;;;;;;;;;;5015567;28;19921;-25
2022/06/24 02:23:12;;;;;;;;;;;;;;;;;;5015579;28;20303;-25
2022/06/24 02:25:38;;;;;;;;;;;;;;;;;;5015849;28;19925;-25
2022/06/24 02:28:04;;;;;;;;;;;;;;;;;;5015643;28;19979;-25
2022/06/24 02:30:31;;;;;;;;;;;;;;;;;;5015647;28;19918;-25
2022/06/24 02:32:57;;;;;;;;;;;;;;;;;;5015434;28;19909;-26
2022/06/24 02:35:23;;;;;;;;;;;;;;;;;;5016070;28;20376;-26
2022/06/24 02:37:49;;;;;;;;;;;;;;;;;;5015512;28;19913;-26
2022/06/24 02:42:59;;;;;;;;;;;;;;;;;;5015402;28;20008;-26
2022/06/24 02:45:25;;;;;;;;;;;;;;;;;;5015414;28;19917;-26
2022/06/24 02:47:51;;;;;;;;;;;;;;;;;;5015619;28;20252;-26
2022/06/24 02:50:17;;;;;;;;;;;;;;;;;;5015577;28;19917;-26
2022/06/24 02:52:43;;;;;;;;;;;;;;;;;;5015245;28;19953;-26
2022/06/24 02:55:09;;;;;;;;;;;;;;;;;;5015834;28;19932;-26
2022/06/24 02:57:35;;;;;;;;;;;;;;;;;;5015538;28;19910;-26
2022/06/24 03:00:01;;;;;;;;;;;;;;;;;;5015493;28;19914;-26
2022/06/24 03:02:27;;;;;;;;;;;;;;;;;;5014954;28;20337;-26
2022/06/24 03:04:53;;;;;;;;;;;;;;;;;;5015225;28;19944;-26
2022/06/24 03:07:19;;;;;;;;;;;;;;;;;;5015210;28;19921;-26
2022/06/24 03:09:45;;;;;;;;;;;;;;;;;;5015189;28;19920;-26
2022/06/24 03:12:11;;;;;;;;;;;;;;;;;;5015435;28;20008;-26
2022/06/24 03:14:37;;;;;;;;;;;;;;;;;;5015181;28;19945;-26
2022/06/24 03:17:03;;;;;;;;;;;;;;;;;;5015339;28;19914;-26
2022/06/24 03:19:29;;;;;;;;;;;;;;;;;;5015361;28;20332;-26
2022/06/24 03:21:55;;;;;;;;;;;;;;;;;;5015465;28;19975;-26
2022/06/24 03:24:21;;;;;;;;;;;;;;;;;;5015026;28;19910;-26
2022/06/24 03:26:47;;;;;;;;;;;;;;;;;;5015079;28;19910;-26
2022/06/24 03:29:13;;;;;;;;;;;;;;;;;;5017062;28;19920;-26
2022/06/24 03:31:39;;;;;;;;;;;;;;;;;;5018655;28;20277;-26
2022/06/24 03:34:05;;;;;;;;;;;;;;;;;;5018653;28;19916;-26
2022/06/24 03:36:31;;;;;;;;;;;;;;;;;;5019228;28;19936;-26
2022/06/24 03:38:57;;;;;;;;;;;;;;;;;;5018620;28;19914;-26
2022/06/24 03:41:23;;;;;;;;;;;;;;;;;;5018583;28;19967;-25
2022/06/24 03:43:49;;;;;;;;;;;;;;;;;;5019044;28;19920;-25
2022/06/24 03:46:15;;;;;;;;;;;;;;;;;;5018358;28;20402;-25
2022/06/24 03:48:41;;;;;;;;;;;;;;;;;;5018351;28;19910;-25
2022/06/24 03:51:06;;;;;;;;;;;;;;;;;;5018528;28;20256;-25
2022/06/24 03:53:32;;;;;;;;;;;;;;;;;;5018169;28;19910;-25
2022/06/24 03:55:58;;;;;;;;;;;;;;;;;;5018517;28;19997;-26
2022/06/24 03:58:25;;;;;;;;;;;;;;;;;;5018240;28;20260;-26
2022/06/24 04:00:51;;;;;;;;;;;;;;;;;;5018374;28;19914;-26
2022/06/24 04:03:17;;;;;;;;;;;;;;;;;;5017877;28;19921;-26
2022/06/24 04:05:43;;;;;;;;;;;;;;;;;;5018052;28;19913;-26
2022/06/24 04:08:09;;;;;;;;;;;;;;;;;;5017925;28;19956;-26
2022/06/24 04:10:35;;;;;;;;;;;;;;;;;;5017921;28;19953;-26
2022/06/24 04:13:01;;;;;;;;;;;;;;;;;;5017509;28;20348;-27
2022/06/24 04:15:27;;;;;;;;;;;;;;;;;;5018036;28;20337;-27
2022/06/24 04:17:53;;;;;;;;;;;;;;;;;;5017649;28;19914;-27
2022/06/24 04:20:19;;;;;;;;;;;;;;;;;;5018329;28;19936;-27
2022/06/24 04:22:45;;;;;;;;;;;;;;;;;;5017521;28;19913;-27
2022/06/24 04:25:11;;;;;;;;;;;;;;;;;;5017573;28;19917;-27
2022/06/24 04:27:37;;;;;;;;;;;;;;;;;;5017641;28;19913;-27
2022/06/24 04:30:04;;;;;;;;;;;;;;;;;;5017297;28;19921;-27
2022/06/24 04:32:30;;;;;;;;;;;;;;;;;;5017573;28;19917;-27
2022/06/24 04:34:56;;;;;;;;;;;;;;;;;;5017239;28;19917;-26
2022/06/24 04:37:22;;;;;;;;;;;;;;;;;;5017067;28;20263;-26
2022/06/24 04:39:48;;;;;;;;;;;;;;;;;;5017013;28;20000;-26
2022/06/24 04:42:14;;;;;;;;;;;;;;;;;;5017216;28;20300;-26
2022/06/24 04:44:40;;;;;;;;;;;;;;;;;;5017231;28;19925;-26
2022/06/24 04:47:06;;;;;;;;;;;;;;;;;;5017334;28;20373;-26
2022/06/24 04:49:32;;;;;;;;;;;;;;;;;;5016237;28;19914;-26
2022/06/24 04:51:58;;;;;;;;;;;;;;;;;;5017009;28;19913;-26
2022/06/24 04:54:23;;;;;;;;;;;;;;;;;;5017122;28;19968;-26
2022/06/24 04:56:49;;;;;;;;;;;;;;;;;;5017512;28;19920;-26
2022/06/24 04:59:15;;;;;;;;;;;;;;;;;;5016926;28;20305;-26
2022/06/24 05:01:41;;;;;;;;;;;;;;;;;;5016726;28;19910;-26
2022/06/24 05:04:07;;;;;;;;;;;;;;;;;;5016703;28;19922;-27
2022/06/24 05:06:33;;;;;;;;;;;;;;;;;;5017367;28;19909;-27
2022/06/24 05:08:59;;;;;;;;;;;;;;;;;;5017140;28;19917;-27
2022/06/24 05:11:25;;;;;;;;;;;;;;;;;;5016708;28;20004;-27
2022/06/24 05:13:51;;;;;;;;;;;;;;;;;;5017154;28;20367;-27
2022/06/24 05:16:17;;;;;;;;;;;;;;;;;;5016479;28;19914;-27
2022/06/24 05:18:43;;;;;;;;;;;;;;;;;;5016538;28;20020;-27
2022/06/24 05:21:09;;;;;;;;;;;;;;;;;;5016431;28;19925;-27
2022/06/24 05:23:35;;;;;;;;;;;;;;;;;;5016461;28;19997;-26
2022/06/24 05:26:01;;;;;;;;;;;;;;;;;;5016973;28;19913;-26
2022/06/24 05:28:27;;;;;;;;;;;;;;;;;;5016344;28;19936;-26
2022/06/24 05:30:53;;;;;;;;;;;;;;;;;;5016801;28;19914;-26
2022/06/24 05:33:19;;;;;;;;;;;;;;;;;;5016122;28;19928;-26
2022/06/24 05:35:45;;;;;;;;;;;;;;;;;;5016263;28;19913;-26
2022/06/24 05:38:11;;;;;;;;;;;;;;;;;;5016614;28;20226;-26
2022/06/24 05:40:37;;;;;;;;;;;;;;;;;;5016245;28;19914;-26
2022/06/24 05:43:03;;;;;;;;;;;;;;;;;;5015977;28;20364;-26
2022/06/24 05:45:29;;;;;;;;;;;;;;;;;;5016601;28;19971;-26
2022/06/24 05:47:55;;;;;;;;;;;;;;;;;;5016337;28;20246;-26
2022/06/24 05:50:21;;;;;;;;;;;;;;;;;;5016202;28;19913;-26
2022/06/24 05:55:32;;;;;;;;;;;;;;;;;;5015872;28;19919;-26
2022/06/24 05:57:58;;;;;;;;;;;;;;;;;;5015633;28;19960;-26
2022/06/24 06:00:24;;;;;;;;;;;;;;;;;;5016215;28;20336;-26
2022/06/24 06:02:50;;;;;;;;;;;;;;;;;;5015427;28;19979;-26
2022/06/24 06:05:16;;;;;;;;;;;;;;;;;;5016316;28;19913;-26
2022/06/24 06:07:42;;;;;;;;;;;;;;;;;;5015997;28;19913;-26
2022/06/24 06:10:08;;;;;;;;;;;;;;;;;;5015544;28;20248;-26
2022/06/24 06:12:35;;;;;;;;;;;;;;;;;;5015598;28;19924;-26
2022/06/24 06:15:01;;;;;;;;;;;;;;;;;;5016265;28;19910;-26
2022/06/24 06:17:27;;;;;;;;;;;;;;;;;;5015570;28;19913;-26
2022/06/24 06:19:53;;;;;;;;;;;;;;;;;;5015612;28;19913;-26
2022/06/24 06:22:19;;;;;;;;;;;;;;;;;;5015439;28;19910;-26
2022/06/24 06:24:45;;;;;;;;;;;;;;;;;;5015474;28;20278;-26
2022/06/24 06:27:12;;;;;;;;;;;;;;;;;;5015483;28;20004;-26
2022/06/24 06:29:38;;;;;;;;;;;;;;;;;;5015706;28;20277;-26
2022/06/24 06:32:04;;;;;;;;;;;;;;;;;;5015196;28;20015;-26
2022/06/24 06:34:30;;;;;;;;;;;;;;;;;;5015302;28;20315;-26
2022/06/24 06:36:56;;;;;;;;;;;;;;;;;;5014221;28;19924;-26
2022/06/24 06:39:22;;;;;;;;;;;;;;;;;;5015468;28;19921;-27
2022/06/24 06:41:48;;;;;;;;;;;;;;;;;;5015279;28;20332;-26
2022/06/24 06:44:14;;;;;;;;;;;;;;;;;;5015197;28;20332;-26
2022/06/24 06:46:40;;;;;;;;;;;;;;;;;;5015137;28;19913;-27
2022/06/24 06:49:06;;;;;;;;;;;;;;;;;;5015790;28;19917;-27
2022/06/24 06:51:32;;;;;;;;;;;;;;;;;;5015358;28;20303;-27
2022/06/24 06:53:58;;;;;;;;;;;;;;;;;;5015631;28;19921;-27
2022/06/24 06:56:24;;;;;;;;;;;;;;;;;;5015079;28;19917;-27
2022/06/24 06:58:50;;;;;;;;;;;;;;;;;;5014893;28;20228;-27
2022/06/24 07:01:16;;;;;;;;;;;;;;;;;;5015059;28;19924;-27
2022/06/24 07:03:42;;;;;;;;;;;;;;;;;;5017283;28;19921;-27
2022/06/24 07:06:08;;;;;;;;;;;;;;;;;;5019359;28;19913;-27
2022/06/24 07:08:34;;;;;;;;;;;;;;;;;;5019015;28;20411;-27
2022/06/24 07:11:00;;;;;;;;;;;;;;;;;;5018806;28;19931;-27
2022/06/24 07:13:27;;;;;;;;;;;;;;;;;;5017931;28;19913;-27
2022/06/24 07:15:53;;;;;;;;;;;;;;;;;;5018794;28;19917;-27
2022/06/24 07:18:19;;;;;;;;;;;;;;;;;;5018873;28;19920;-27
2022/06/24 07:20:45;;;;;;;;;;;;;;;;;;5018800;28;19981;-27
2022/06/24 07:23:11;;;;;;;;;;;;;;;;;;5018924;28;19913;-27
2022/06/24 07:25:37;;;;;;;;;;;;;;;;;;5018657;28;20345;-27
2022/06/24 07:28:04;;;;;;;;;;;;;;;;;;5018815;28;19913;-27
2022/06/24 07:30:30;;;;;;;;;;;;;;;;;;5018755;28;19930;-27
2022/06/24 07:32:56;;;;;;;;;;;;;;;;;;5018560;28;20359;-27
2022/06/24 07:35:22;;;;;;;;;;;;;;;;;;5018696;28;19936;-27
2022/06/24 07:37:48;;;;;;;;;;;;;;;;;;5018715;28;20212;-27
2022/06/24 07:40:15;;;;;;;;;;;;;;;;;;5018255;28;19909;-27
2022/06/24 07:42:41;;;;;;;;;;;;;;;;;;5018084;28;19914;-26
2022/06/24 07:45:07;;;;;;;;;;;;;;;;;;5018669;28;19916;-27
2022/06/24 07:47:35;;;;;;;;;;;;;;;;;;5018207;28;19913;-26
2022/06/24 07:50:01;;;;;;;;;;;;;;;;;;5018109;28;19920;-26
2022/06/24 07:52:27;;;;;;;;;;;;;;;;;;5017853;28;19917;-26
2022/06/24 07:56:56;;;;;;;;;;;;;;;;;;5018224;28;19940;-26
2022/06/24 07:57:38;;;;;;;;;;;;;;;;;;5018012;28;19913;-26
2022/06/24 08:00:04;;;;;;;;;;;;;;;;;;5018452;28;19960;-26
2022/06/24 08:02:30;;;;;;;;;;;;;;;;;;5017467;28;19913;-26
2022/06/24 08:04:56;;;;;;;;;;;;;;;;;;5017870;28;19918;-26
2022/06/24 08:07:22;;;;;;;;;;;;;;;;;;5017862;28;20004;-26
2022/06/24 08:09:48;;;;;;;;;;;;;;;;;;5018007;28;19960;-26
2022/06/24 08:12:14;;;;;;;;;;;;;;;;;;5017438;28;20276;-26
2022/06/24 08:14:40;;;;;;;;;;;;;;;;;;5016015;28;19909;-26
2022/06/24 08:17:06;;;;;;;;;;;;;;;;;;5018140;28;20439;-27
2022/06/24 08:19:32;;;;;;;;;;;;;;;;;;5017959;28;19961;-27
2022/06/24 08:21:58;;;;;;;;;;;;;;;;;;5017368;28;20403;-27
2022/06/24 08:24:24;;;;;;;;;;;;;;;;;;5017415;28;19975;-27
2022/06/24 08:26:50;;;;;;;;;;;;;;;;;;5017340;28;19921;-27
2022/06/24 08:29:17;;;;;;;;;;;;;;;;;;5017371;28;19910;-27
2022/06/24 08:31:43;;;;;;;;;;;;;;;;;;5017114;28;19924;-27
2022/06/24 08:34:09;;;;;;;;;;;;;;;;;;5017592;28;19975;-27
2022/06/24 08:36:36;;;;;;;;;;;;;;;;;;5017280;28;19917;-27
2022/06/24 08:39:02;;;;;;;;;;;;;;;;;;5017466;28;19979;-27
2022/06/24 08:41:28;;;;;;;;;;;;;;;;;;5016262;28;19945;-27
2022/06/24 08:43:54;;;;;;;;;;;;;;;;;;5016188;28;20234;-27
2022/06/24 08:46:20;;;;;;;;;;;;;;;;;;5017254;28;19963;-27
2022/06/24 08:48:46;;;;;;;;;;;;;;;;;;5017120;28;20256;-27
2022/06/24 08:51:12;;;;;;;;;;;;;;;;;;5017268;28;19921;-27
2022/06/24 08:53:39;;;;;;;;;;;;;;;;;;5016845;28;19971;-27
2022/06/24 08:56:04;;;;;;;;;;;;;;;;;;5016891;28;19920;-27
2022/06/24 08:58:30;;;;;;;;;;;;;;;;;;5017330;28;19909;-26
2022/06/24 09:00:56;;;;;;;;;;;;;;;;;;5017412;28;19945;-27
2022/06/24 09:03:22;;;;;;;;;;;;;;;;;;5016563;28;20280;-27
2022/06/24 09:05:48;;;;;;;;;;;;;;;;;;5017082;28;20277;-27
2022/06/24 09:08:14;;;;;;;;;;;;;;;;;;5016858;28;19944;-27
2022/06/24 09:10:40;;;;;;;;;;;;;;;;;;5016658;28;19968;-27
2022/06/24 09:13:06;;;;;;;;;;;;;;;;;;5016826;28;19913;-27
2022/06/24 09:15:32;;;;;;;;;;;;;;;;;;5016627;28;19917;-27
2022/06/24 09:17:59;;;;;;;;;;;;;;;;;;5016982;28;19917;-27
2022/06/24 09:20:25;;;;;;;;;;;;;;;;;;5016461;28;19914;-27
2022/06/24 09:22:51;;;;;;;;;;;;;;;;;;5016199;28;19987;-26
2022/06/24 09:25:18;;;;;;;;;;;;;;;;;;5016659;28;19925;-26
2022/06/24 09:27:44;;;;;;;;;;;;;;;;;;5015462;28;20363;-26
2022/06/24 09:30:09;;;;;;;;;;;;;;;;;;5017066;28;19917;-26
2022/06/24 09:32:36;;;;;;;;;;;;;;;;;;5016598;28;19918;-26
2022/06/24 09:35:01;;;;;;;;;;;;;;;;;;5015311;28;19914;-26
2022/06/24 09:37:27;;;;;;;;;;;;;;;;;;5016167;28;19909;-26
2022/06/24 09:39:53;;;;;;;;;;;;;;;;;;5016031;28;19914;-26
2022/06/24 09:42:19;;;;;;;;;;;;;;;;;;5015711;28;20352;-26
2022/06/24 09:44:45;;;;;;;;;;;;;;;;;;5015885;28;19909;-26
2022/06/24 09:47:19;;;;;;;;;;;;;;;;;;5134230;27;20353;-22
2022/06/24 09:49:45;;;;;;;;;;;;;;;;;;5133206;28;19994;-21
2022/06/24 09:52:11;;;;;;;;;;;;;;;;;;5133020;28;19946;-22
2022/06/24 09:54:37;;;;;;;;;;;;;;;;;;5133139;28;20412;-22
2022/06/24 09:57:03;;;;;;;;;;;;;;;;;;5133870;28;19954;-22
2022/06/24 10:02:14;;;;;;;;;;;;;;;;;;5133586;28;19922;-22
2022/06/24 10:04:40;;;;;;;;;;;;;;;;;;5133361;27;20223;-22
2022/06/24 10:07:06;;;;;;;;;;;;;;;;;;5133544;28;19926;-22
2022/06/24 10:09:32;;;;;;;;;;;;;;;;;;5133817;27;19911;-22
2022/06/24 10:11:58;;;;;;;;;;;;;;;;;;5133344;28;19912;-22
2022/06/24 10:14:24;;;;;;;;;;;;;;;;;;5132836;28;19934;-22
2022/06/24 10:16:50;;;;;;;;;;;;;;;;;;5132833;28;20361;-23
2022/06/24 10:19:16;;;;;;;;;;;;;;;;;;5132436;28;19907;-22
2022/06/24 10:21:42;;;;;;;;;;;;;;;;;;5132381;28;19912;-22
2022/06/24 10:24:08;;;;;;;;;;;;;;;;;;5132762;28;19961;-23
2022/06/24 10:26:34;;;;;;;;;;;;;;;;;;5132720;28;19916;-22
2022/06/24 10:29:03;;;;;;;;;;;;;;;;;;5132717;28;20335;-23
2022/06/24 10:31:29;;;;;;;;;;;;;;;;;;5132522;28;20319;-22
2022/06/24 10:33:55;;;;;;;;;;;;;;;;;;5132490;28;19907;-21
2022/06/24 10:36:21;;;;;;;;;;;;;;;;;;5132459;28;19920;-22
2022/06/24 10:38:47;;;;;;;;;;;;;;;;;;5132662;28;19919;-22
2022/06/24 10:41:13;;;;;;;;;;;;;;;;;;5132820;28;19912;-22
2022/06/24 10:43:40;;;;;;;;;;;;;;;;;;5132091;28;19922;-22
2022/06/24 10:46:06;;;;;;;;;;;;;;;;;;5132066;27;19931;-25
2022/06/24 10:48:32;;;;;;;;;;;;;;;;;;5132099;28;19911;-22
2022/06/24 10:50:58;;;;;;;;;;;;;;;;;;5131884;28;20257;-22
2022/06/24 10:53:24;;;;;;;;;;;;;;;;;;5131766;28;20360;-22
2022/06/24 10:55:50;;;;;;;;;;;;;;;;;;5132630;28;19911;-21
2022/06/24 10:58:17;;;;;;;;;;;;;;;;;;5120685;28;20313;-23
2022/06/24 11:00:47;;;;;;;;;;;;;;;;;;5118698;28;19920;-21
2022/06/24 11:03:15;;;;;;;;;;;;;;;;;;5118507;28;19947;-22
2022/06/24 11:05:41;;;;;;;;;;;;;;;;;;5118331;28;19938;-21
2022/06/24 11:08:07;;;;;;;;;;;;;;;;;;5118286;28;19911;-22
2022/06/24 11:10:33;;;;;;;;;;;;;;;;;;5118119;28;20345;-21
2022/06/24 11:12:59;;;;;;;;;;;;;;;;;;5118123;28;20007;-22
2022/06/24 11:15:25;;;;;;;;;;;;;;;;;;5118666;28;20373;-21
2022/06/24 11:17:51;;;;;;;;;;;;;;;;;;5118089;28;19939;-22
2022/06/24 11:20:17;;;;;;;;;;;;;;;;;;5118157;28;19923;-22
2022/06/24 11:22:43;;;;;;;;;;;;;;;;;;5118117;28;19918;-23
2022/06/24 11:25:09;;;;;;;;;;;;;;;;;;5118392;28;19911;-22
2022/06/24 11:27:35;;;;;;;;;;;;;;;;;;5117744;28;19911;-22
2022/06/24 11:30:01;;;;;;;;;;;;;;;;;;5118025;28;20212;-23
2022/06/24 11:32:27;;;;;;;;;;;;;;;;;;5117789;28;19920;-21
2022/06/24 11:34:53;;;;;;;;;;;;;;;;;;5117699;28;19919;-22
2022/06/24 11:37:19;;;;;;;;;;;;;;;;;;5117537;28;19912;-23
2022/06/24 11:39:45;;;;;;;;;;;;;;;;;;5117476;28;19995;-22
2022/06/24 11:42:11;;;;;;;;;;;;;;;;;;5117427;28;19911;-23
2022/06/24 11:44:38;;;;;;;;;;;;;;;;;;5117569;28;19965;-23
2022/06/24 11:47:05;;;;;;;;;;;;;;;;;;5117101;28;19930;-22
2022/06/24 11:49:32;;;;;;;;;;;;;;;;;;5117410;28;19924;-22
2022/06/24 11:51:58;;;;;;;;;;;;;;;;;;5117550;28;19977;-25
2022/06/24 11:54:24;;;;;;;;;;;;;;;;;;5117244;28;19912;-23
2022/06/24 11:56:50;;;;;;;;;;;;;;;;;;5117201;28;20330;-23
2022/06/24 11:59:16;;;;;;;;;;;;;;;;;;5117221;28;19912;-22
2022/06/24 12:01:42;;;;;;;;;;;;;;;;;;5117116;28;19998;-23
2022/06/24 12:04:08;;;;;;;;;;;;;;;;;;5117749;28;19980;-23
2022/06/24 12:06:34;;;;;;;;;;;;;;;;;;5116999;28;19919;-22
2022/06/24 12:09:00;;;;;;;;;;;;;;;;;;5116400;28;20289;-22
2022/06/24 12:11:26;;;;;;;;;;;;;;;;;;5117001;28;19923;-23
2022/06/24 12:13:52;;;;;;;;;;;;;;;;;;5116953;28;19994;-24
2022/06/24 12:16:18;;;;;;;;;;;;;;;;;;5116917;28;19911;-23
2022/06/24 12:18:44;;;;;;;;;;;;;;;;;;5116788;28;19919;-22
2022/06/24 12:21:10;;;;;;;;;;;;;;;;;;5116833;28;19919;-23
2022/06/24 12:23:36;;;;;;;;;;;;;;;;;;5116565;28;19908;-23
2022/06/24 12:26:02;;;;;;;;;;;;;;;;;;5117106;28;19916;-23
2022/06/24 12:28:28;;;;;;;;;;;;;;;;;;5116757;28;19908;-22
2022/06/24 12:30:54;;;;;;;;;;;;;;;;;;5116913;28;19912;-23
2022/06/24 12:33:20;;;;;;;;;;;;;;;;;;5116668;28;19931;-23
2022/06/24 12:35:49;;;;;;;;;;;;;;;;;;5116445;28;19956;-22
2022/06/24 12:38:15;;;;;;;;;;;;;;;;;;5116671;28;19923;-26
2022/06/24 12:40:41;;;;;;;;;;;;;;;;;;5116510;28;19994;-22
2022/06/24 12:43:07;;;;;;;;;;;;;;;;;;5116225;28;20350;-22
2022/06/24 12:45:33;;;;;;;;;;;;;;;;;;5116156;28;19920;-22
2022/06/24 12:50:43;;;;;;;;;;;;;;;;;;5116516;28;19918;-28
2022/06/24 12:53:09;;;;;;;;;;;;;;;;;;5116184;28;19912;-22
2022/06/24 12:55:35;;;;;;;;;;;;;;;;;;5116085;28;19990;-22
2022/06/24 12:58:01;;;;;;;;;;;;;;;;;;5116641;28;19915;-22
2022/06/24 13:00:27;;;;;;;;;;;;;;;;;;5116314;28;19908;-23
2022/06/24 13:02:53;;;;;;;;;;;;;;;;;;5116264;28;19912;-23
2022/06/24 13:05:19;;;;;;;;;;;;;;;;;;5116429;28;19915;-23
2022/06/24 13:07:45;;;;;;;;;;;;;;;;;;5115857;28;20304;-22
2022/06/24 13:10:11;;;;;;;;;;;;;;;;;;5116383;28;19923;-23
2022/06/24 13:12:38;;;;;;;;;;;;;;;;;;5115841;28;19908;-22
2022/06/24 13:15:04;;;;;;;;;;;;;;;;;;5115811;28;19923;-24
2022/06/24 13:17:30;;;;;;;;;;;;;;;;;;5115830;28;19919;-23
2022/06/24 13:19:56;;;;;;;;;;;;;;;;;;5115510;28;19908;-23
2022/06/24 13:22:22;;;;;;;;;;;;;;;;;;5116003;28;20002;-22
2022/06/24 13:24:48;;;;;;;;;;;;;;;;;;5115705;28;19966;-23
2022/06/24 13:27:14;;;;;;;;;;;;;;;;;;5116195;28;19920;-24
2022/06/24 13:29:41;;;;;;;;;;;;;;;;;;5116210;28;19915;-23
2022/06/24 13:32:07;;;;;;;;;;;;;;;;;;5115510;28;19912;-24
2022/06/24 13:34:33;;;;;;;;;;;;;;;;;;5115921;28;20271;-23
2022/06/24 13:36:59;;;;;;;;;;;;;;;;;;5115444;28;19934;-23
2022/06/24 13:39:25;;;;;;;;;;;;;;;;;;5116193;28;19907;-23
2022/06/24 13:41:51;;;;;;;;;;;;;;;;;;5115640;28;19916;-24
2022/06/24 13:44:17;;;;;;;;;;;;;;;;;;5115760;28;19958;-25
2022/06/24 13:46:43;;;;;;;;;;;;;;;;;;5115348;28;19972;-22
2022/06/24 13:49:09;;;;;;;;;;;;;;;;;;5115535;28;19912;-23
2022/06/24 13:51:35;;;;;;;;;;;;;;;;;;5115684;28;19911;-23
2022/06/24 13:54:01;;;;;;;;;;;;;;;;;;5115392;28;19911;-22
2022/06/24 13:56:26;;;;;;;;;;;;;;;;;;5115858;28;19922;-23
2022/06/24 13:58:53;;;;;;;;;;;;;;;;;;5115404;28;20338;-25
2022/06/24 14:01:19;;;;;;;;;;;;;;;;;;5115433;28;19964;-23
2022/06/24 14:03:45;;;;;;;;;;;;;;;;;;5115362;28;19912;-22
2022/06/24 14:06:11;;;;;;;;;;;;;;;;;;5115222;28;19920;-23
2022/06/24 14:08:37;;;;;;;;;;;;;;;;;;5115945;28;19914;-23
2022/06/24 14:11:05;;;;;;;;;;;;;;;;;;5115340;28;19912;-23
2022/06/24 14:13:31;;;;;;;;;;;;;;;;;;5115476;28;19908;-25
2022/06/24 14:15:57;;;;;;;;;;;;;;;;;;5114162;28;19923;-22
2022/06/24 14:18:23;;;;;;;;;;;;;;;;;;5115149;28;19908;-23
2022/06/24 14:20:49;;;;;;;;;;;;;;;;;;5115382;28;19964;-22
2022/06/24 14:26:00;;;;;;;;;;;;;;;;;;5115165;28;20344;-22
2022/06/24 14:28:26;;;;;;;;;;;;;;;;;;5115790;28;19916;-23
2022/06/24 14:30:52;;;;;;;;;;;;;;;;;;5115100;28;19915;-23
2022/06/24 14:33:18;;;;;;;;;;;;;;;;;;5117572;28;19915;-22
2022/06/24 14:35:44;;;;;;;;;;;;;;;;;;5118971;28;20337;-22
2022/06/24 14:40:54;;;;;;;;;;;;;;;;;;5118906;28;19973;-23
2022/06/24 14:43:20;;;;;;;;;;;;;;;;;;5118578;28;19922;-27
2022/06/24 14:45:46;;;;;;;;;;;;;;;;;;5118111;28;20014;-22
2022/06/24 14:48:12;;;;;;;;;;;;;;;;;;5118585;28;19912;-22
2022/06/24 14:50:38;;;;;;;;;;;;;;;;;;5118265;28;19908;-23
2022/06/24 14:53:04;;;;;;;;;;;;;;;;;;5118212;28;19968;-23
2022/06/24 14:55:30;;;;;;;;;;;;;;;;;;5118140;28;19985;-23
2022/06/24 14:57:56;;;;;;;;;;;;;;;;;;5118585;28;19916;-23
2022/06/24 15:00:23;;;;;;;;;;;;;;;;;;5118029;28;20321;-23
2022/06/24 15:02:49;;;;;;;;;;;;;;;;;;5118230;28;20254;-22
2022/06/24 15:05:17;;;;;;;;;;;;;;;;;;5117840;28;19912;-23
2022/06/24 15:07:43;;;;;;;;;;;;;;;;;;5117850;28;19911;-25
2022/06/24 15:10:09;;;;;;;;;;;;;;;;;;5117871;28;20296;-24
2022/06/24 15:12:35;;;;;;;;;;;;;;;;;;5117705;28;19915;-22
2022/06/24 15:15:01;;;;;;;;;;;;;;;;;;5118272;28;19943;-24
2022/06/24 15:17:27;;;;;;;;;;;;;;;;;;5117694;28;20243;-22
2022/06/24 15:19:53;;;;;;;;;;;;;;;;;;5117564;28;19912;-24
2022/06/24 15:22:19;;;;;;;;;;;;;;;;;;5117455;28;20334;-22
2022/06/24 15:24:50;;;;;;;;;;;;;;;;;;5117504;28;19912;-23
2022/06/24 15:27:16;;;;;;;;;;;;;;;;;;5117380;28;19916;-22
2022/06/24 15:29:42;;;;;;;;;;;;;;;;;;5117353;28;19923;-22
2022/06/24 15:32:08;;;;;;;;;;;;;;;;;;5117330;28;19960;-23
2022/06/24 15:34:34;;;;;;;;;;;;;;;;;;5117684;28;20015;-23
2022/06/24 15:37:01;;;;;;;;;;;;;;;;;;5117573;28;19916;-23
2022/06/24 15:39:27;;;;;;;;;;;;;;;;;;5117181;28;19998;-23
2022/06/24 15:41:53;;;;;;;;;;;;;;;;;;5117134;28;19961;-23
2022/06/24 15:44:19;;;;;;;;;;;;;;;;;;5117347;28;20227;-23
2022/06/24 15:46:45;;;;;;;;;;;;;;;;;;5116826;28;20342;-22
2022/06/24 15:49:11;;;;;;;;;;;;;;;;;;5117641;28;19965;-22
2022/06/24 15:51:37;;;;;;;;;;;;;;;;;;5117303;28;19912;-23
2022/06/24 15:54:03;;;;;;;;;;;;;;;;;;5117250;28;19980;-23
2022/06/24 15:56:29;;;;;;;;;;;;;;;;;;5117247;28;19961;-23
2022/06/24 15:58:55;;;;;;;;;;;;;;;;;;5116902;28;19908;-22
2022/06/24 16:01:21;;;;;;;;;;;;;;;;;;5117950;28;20369;-23
2022/06/24 16:03:47;;;;;;;;;;;;;;;;;;5116791;28;19912;-23
2022/06/24 16:06:13;;;;;;;;;;;;;;;;;;5116940;28;19916;-23
2022/06/24 16:08:39;;;;;;;;;;;;;;;;;;5117022;28;19908;-22
2022/06/24 16:11:05;;;;;;;;;;;;;;;;;;5116552;28;19926;-23
2022/06/24 16:13:31;;;;;;;;;;;;;;;;;;5116530;28;20006;-23
2022/06/24 16:15:57;;;;;;;;;;;;;;;;;;5117084;28;19916;-23
2022/06/24 16:18:23;;;;;;;;;;;;;;;;;;5116539;28;20358;-22
2022/06/24 16:20:49;;;;;;;;;;;;;;;;;;5116444;28;20338;-23
2022/06/24 16:23:15;;;;;;;;;;;;;;;;;;5116401;28;19908;-24
2022/06/24 16:28:41;;;;;;;;;;;;;;;;;;5116446;28;20349;-25
2022/06/24 16:31:07;;;;;;;;;;;;;;;;;;5116417;28;19923;-22
2022/06/24 16:33:33;;;;;;;;;;;;;;;;;;5117252;28;19907;-23
2022/06/24 16:36:00;;;;;;;;;;;;;;;;;;5116833;28;20246;-23
2022/06/24 16:38:26;;;;;;;;;;;;;;;;;;5116128;28;19911;-22
2022/06/24 16:40:52;;;;;;;;;;;;;;;;;;5116049;28;19912;-25
2022/06/24 16:43:18;;;;;;;;;;;;;;;;;;5116356;28;20326;-23
2022/06/24 16:45:44;;;;;;;;;;;;;;;;;;5115811;28;19920;-22
2022/06/24 16:48:10;;;;;;;;;;;;;;;;;;5116049;28;19907;-23
2022/06/24 16:50:36;;;;;;;;;;;;;;;;;;5116464;28;19969;-23
2022/06/24 16:53:02;;;;;;;;;;;;;;;;;;5114934;28;20312;-23
2022/06/24 16:55:28;;;;;;;;;;;;;;;;;;5115557;28;19912;-23
2022/06/24 16:57:54;;;;;;;;;;;;;;;;;;5117090;28;20008;-22
2022/06/24 17:00:20;;;;;;;;;;;;;;;;;;5115784;28;19915;-23